createdAt,value
2023-05-09T00:00:51.719Z,164.79
2023-05-09T00:01:51.783Z,164.40
2023-05-09T00:02:51.816Z,166.36
2023-05-09T00:03:51.959Z,163.64
2023-05-09T00:04:51.874Z,164.06
2023-05-09T00:05:51.832Z,164.37
2023-05-09T00:06:51.834Z,164.42
2023-05-09T00:07:51.869Z,164.25
2023-05-09T00:08:51.888Z,162.80
2023-05-09T00:09:51.896Z,165.58
2023-05-09T00:10:51.923Z,164.17
2023-05-09T00:11:51.996Z,163.86
2023-05-09T00:12:51.989Z,163.30
2023-05-09T00:13:52.014Z,163.20
2023-05-09T00:14:52.111Z,164.79
2023-05-09T00:15:52.033Z,163.33
2023-05-09T00:16:52.122Z,164.41
2023-05-09T00:17:52.075Z,163.62
2023-05-09T00:18:52.096Z,165.35
2023-05-09T00:19:52.171Z,163.80
2023-05-09T00:20:52.136Z,162.72
2023-05-09T00:21:52.199Z,164.84
2023-05-09T00:22:52.174Z,162.47
2023-05-09T00:23:52.244Z,161.04
2023-05-09T00:24:52.227Z,163.57
2023-05-09T00:25:52.257Z,162.77
2023-05-09T00:26:52.248Z,163.60
2023-05-09T00:27:52.280Z,161.62
2023-05-09T00:28:52.299Z,163.44
2023-05-09T00:29:52.313Z,162.63
2023-05-09T00:30:52.433Z,161.91
2023-05-09T00:31:52.421Z,162.02
2023-05-09T00:32:52.392Z,164.06
2023-05-09T00:33:52.404Z,161.15
2023-05-09T00:34:52.436Z,162.76
2023-05-09T00:35:52.444Z,162.71
2023-05-09T00:36:52.471Z,160.87
2023-05-09T00:37:52.486Z,159.98
2023-05-09T00:38:52.496Z,161.20
2023-05-09T00:39:52.546Z,163.23
2023-05-09T00:40:52.549Z,162.76
2023-05-09T00:41:52.573Z,161.43
2023-05-09T00:42:52.637Z,161.73
2023-05-09T00:43:52.589Z,162.64
2023-05-09T00:44:52.668Z,161.10
2023-05-09T00:45:52.728Z,161.06
2023-05-09T00:46:52.765Z,161.19
2023-05-09T00:47:52.841Z,161.39
2023-05-09T00:48:52.753Z,161.91
2023-05-09T00:49:52.726Z,161.41
2023-05-09T00:50:52.753Z,160.74
2023-05-09T00:51:52.759Z,162.34
2023-05-09T00:52:52.791Z,160.70
2023-05-09T00:53:52.809Z,161.97
2023-05-09T00:54:52.851Z,160.01
2023-05-09T00:55:52.864Z,161.00
2023-05-09T00:56:52.951Z,160.47
2023-05-09T00:57:52.881Z,161.15
2023-05-09T00:58:53.014Z,162.20
2023-05-09T00:59:52.937Z,161.51
2023-05-09T01:00:53.002Z,162.02
2023-05-09T01:01:53.043Z,160.03
2023-05-09T01:02:53.365Z,160.00
2023-05-09T01:03:53.101Z,160.21
2023-05-09T01:04:53.039Z,160.07
2023-05-09T01:05:53.070Z,160.96
2023-05-09T01:06:53.074Z,161.05
2023-05-09T01:07:53.083Z,160.02
2023-05-09T01:08:53.126Z,162.72
2023-05-09T01:09:53.115Z,160.43
2023-05-09T01:10:53.153Z,159.50
2023-05-09T01:11:53.197Z,162.56
2023-05-09T01:12:53.197Z,160.30
2023-05-09T01:13:53.213Z,160.31
2023-05-09T01:14:53.236Z,159.05
2023-05-09T01:15:53.284Z,160.40
2023-05-09T01:16:53.282Z,158.61
2023-05-09T01:17:53.358Z,158.85
2023-05-09T01:18:53.416Z,158.17
2023-05-09T01:19:53.342Z,160.20
2023-05-09T01:20:53.354Z,162.04
2023-05-09T01:21:53.382Z,160.04
2023-05-09T01:22:53.395Z,158.96
2023-05-09T01:23:53.414Z,160.17
2023-05-09T01:24:53.438Z,158.70
2023-05-09T01:25:53.489Z,158.82
2023-05-09T01:26:53.480Z,160.52
2023-05-09T01:27:53.538Z,158.18
2023-05-09T01:28:53.543Z,158.89
2023-05-09T01:29:53.569Z,159.95
2023-05-09T01:30:53.554Z,159.10
2023-05-09T01:31:53.612Z,159.02
2023-05-09T01:32:53.705Z,157.11
2023-05-09T01:33:53.630Z,157.82
2023-05-09T01:34:53.756Z,156.67
2023-05-09T01:35:53.643Z,158.85
2023-05-09T01:36:53.695Z,158.60
2023-05-09T01:37:53.722Z,157.94
2023-05-09T01:38:53.752Z,158.08
2023-05-09T01:39:53.768Z,156.38
2023-05-09T01:40:53.768Z,156.00
2023-05-09T01:41:53.834Z,156.83
2023-05-09T01:42:53.804Z,156.37
2023-05-09T01:43:53.865Z,156.70
2023-05-09T01:44:53.838Z,157.21
2023-05-09T01:45:53.851Z,156.88
2023-05-09T01:46:54.058Z,157.74
2023-05-09T01:47:53.923Z,157.76
2023-05-09T01:48:53.934Z,156.36
2023-05-09T01:49:53.940Z,157.81
2023-05-09T01:50:54.043Z,157.32
2023-05-09T01:51:53.989Z,157.65
2023-05-09T01:52:53.991Z,157.65
2023-05-09T01:53:54.063Z,155.67
2023-05-09T01:54:54.029Z,154.94
2023-05-09T01:55:54.078Z,156.89
2023-05-09T01:56:54.090Z,156.43
2023-05-09T01:57:54.119Z,157.13
2023-05-09T01:58:54.130Z,156.16
2023-05-09T01:59:54.136Z,155.79
2023-05-09T02:00:54.212Z,156.49
2023-05-09T02:01:54.228Z,155.46
2023-05-09T02:02:54.270Z,158.90
2023-05-09T02:03:54.285Z,157.08
2023-05-09T02:04:54.280Z,156.46
2023-05-09T02:05:54.276Z,156.07
2023-05-09T02:06:54.390Z,154.18
2023-05-09T02:07:54.309Z,155.05
2023-05-09T02:08:54.336Z,155.83
2023-05-09T02:09:54.361Z,157.53
2023-05-09T02:10:54.451Z,156.28
2023-05-09T02:11:54.434Z,156.70
2023-05-09T02:12:54.473Z,155.56
2023-05-09T02:13:54.435Z,154.08
2023-05-09T02:14:54.463Z,156.55
2023-05-09T02:15:54.478Z,155.11
2023-05-09T02:16:54.545Z,158.13
2023-05-09T02:17:54.561Z,155.10
2023-05-09T02:18:54.566Z,154.77
2023-05-09T02:19:54.589Z,156.18
2023-05-09T02:20:54.636Z,155.29
2023-05-09T02:21:54.648Z,155.42
2023-05-09T02:22:54.778Z,154.34
2023-05-09T02:23:54.705Z,156.05
2023-05-09T02:24:54.711Z,155.87
2023-05-09T02:25:54.751Z,154.72
2023-05-09T02:26:54.788Z,154.38
2023-05-09T02:27:54.772Z,156.53
2023-05-09T02:28:54.804Z,153.99
2023-05-09T02:29:54.813Z,154.06
2023-05-09T02:30:54.853Z,154.49
2023-05-09T02:31:54.916Z,153.79
2023-05-09T02:32:54.974Z,153.26
2023-05-09T02:33:54.941Z,154.76
2023-05-09T02:34:54.941Z,154.49
2023-05-09T02:35:54.961Z,153.78
2023-05-09T02:36:55.038Z,153.93
2023-05-09T02:37:55.031Z,156.14
2023-05-09T02:38:55.122Z,154.46
2023-05-09T02:39:55.090Z,156.31
2023-05-09T02:40:55.089Z,156.65
2023-05-09T02:41:55.119Z,153.71
2023-05-09T02:42:55.135Z,155.24
2023-05-09T02:43:55.173Z,153.54
2023-05-09T02:44:55.200Z,155.57
2023-05-09T02:45:55.263Z,153.60
2023-05-09T02:46:55.266Z,153.33
2023-05-09T02:47:55.389Z,155.51
2023-05-09T02:48:55.332Z,155.87
2023-05-09T02:49:55.351Z,155.84
2023-05-09T02:50:55.391Z,154.19
2023-05-09T02:51:55.392Z,153.68
2023-05-09T02:52:55.429Z,154.98
2023-05-09T02:53:55.461Z,152.56
2023-05-09T02:54:55.557Z,153.73
2023-05-09T02:55:55.505Z,153.18
2023-05-09T02:56:55.539Z,153.57
2023-05-09T02:58:09.155Z,153.57
2023-05-09T02:58:56.562Z,153.67
2023-05-09T02:59:55.540Z,153.98
2023-05-09T03:00:55.591Z,154.39
2023-05-09T03:01:55.564Z,153.34
2023-05-09T03:02:55.591Z,153.66
2023-05-09T03:03:55.612Z,153.43
2023-05-09T03:04:55.494Z,152.67
2023-05-09T03:05:55.483Z,154.38
2023-05-09T03:06:55.510Z,151.92
2023-05-09T03:07:55.478Z,152.24
2023-05-09T03:08:55.451Z,152.74
2023-05-09T03:09:55.464Z,152.71
2023-05-09T03:10:55.576Z,153.79
2023-05-09T03:11:55.436Z,150.92
2023-05-09T03:12:55.461Z,152.49
2023-05-09T03:13:55.432Z,154.07
2023-05-09T03:14:55.440Z,154.08
2023-05-09T03:15:55.494Z,152.82
2023-05-09T03:16:55.431Z,152.86
2023-05-09T03:17:55.534Z,153.09
2023-05-09T03:18:55.533Z,153.78
2023-05-09T03:19:55.508Z,152.52
2023-05-09T03:20:55.561Z,153.27
2023-05-09T03:21:55.578Z,153.25
2023-05-09T03:22:55.572Z,150.55
2023-05-09T03:23:55.605Z,154.70
2023-05-09T03:24:55.634Z,151.29
2023-05-09T03:25:55.682Z,150.57
2023-05-09T03:26:55.766Z,149.24
2023-05-09T03:27:55.736Z,153.17
2023-05-09T03:28:56.057Z,153.58
2023-05-09T03:29:55.745Z,151.86
2023-05-09T03:30:55.784Z,153.58
2023-05-09T03:31:55.848Z,149.98
2023-05-09T03:32:55.872Z,151.47
2023-05-09T03:33:55.841Z,152.27
2023-05-09T03:34:55.876Z,150.33
2023-05-09T03:35:55.913Z,150.77
2023-05-09T03:36:55.910Z,151.36
2023-05-09T03:37:55.941Z,153.74
2023-05-09T03:38:55.963Z,151.38
2023-05-09T03:39:55.982Z,150.37
2023-05-09T03:40:56.022Z,151.65
2023-05-09T03:41:56.043Z,150.23
2023-05-09T03:42:56.162Z,149.95
2023-05-09T03:43:56.078Z,149.32
2023-05-09T03:44:56.115Z,150.22
2023-05-09T03:45:56.152Z,151.75
2023-05-09T03:46:56.235Z,149.78
2023-05-09T03:47:56.265Z,149.77
2023-05-09T03:48:56.248Z,152.54
2023-05-09T03:49:56.263Z,151.00
2023-05-09T03:50:56.259Z,152.51
2023-05-09T03:51:56.295Z,149.57
2023-05-09T03:52:56.325Z,152.41
2023-05-09T03:53:56.303Z,149.60
2023-05-09T03:54:56.359Z,151.10
2023-05-09T03:55:56.387Z,150.65
2023-05-09T03:56:56.377Z,149.42
2023-05-09T03:57:56.424Z,151.10
2023-05-09T03:58:56.525Z,150.56
2023-05-09T03:59:56.469Z,149.60
2023-05-09T04:00:56.497Z,152.59
2023-05-09T04:01:56.577Z,151.57
2023-05-09T04:02:56.636Z,149.08
2023-05-09T04:03:56.580Z,150.15
2023-05-09T04:04:56.571Z,147.98
2023-05-09T04:05:56.616Z,151.33
2023-05-09T04:06:56.610Z,151.00
2023-05-09T04:07:56.665Z,149.08
2023-05-09T04:08:56.654Z,150.83
2023-05-09T04:09:56.660Z,149.20
2023-05-09T04:10:56.697Z,149.82
2023-05-09T04:11:56.718Z,152.65
2023-05-09T04:12:56.790Z,148.69
2023-05-09T04:13:56.765Z,150.13
2023-05-09T04:14:56.865Z,150.99
2023-05-09T04:15:56.819Z,149.24
2023-05-09T04:16:56.877Z,148.13
2023-05-09T04:17:56.943Z,147.88
2023-05-09T04:18:56.902Z,150.00
2023-05-09T04:19:56.888Z,148.15
2023-05-09T04:20:56.930Z,149.28
2023-05-09T04:21:56.967Z,149.50
2023-05-09T04:22:56.979Z,151.60
2023-05-09T04:23:56.977Z,148.05
2023-05-09T04:24:56.995Z,147.87
2023-05-09T04:25:57.033Z,150.41
2023-05-09T04:26:57.048Z,148.21
2023-05-09T04:27:57.071Z,150.29
2023-05-09T04:28:57.131Z,147.84
2023-05-09T04:29:57.119Z,149.36
2023-05-09T04:30:57.378Z,151.13
2023-05-09T04:31:57.316Z,148.73
2023-05-09T04:32:57.186Z,150.64
2023-05-09T04:33:57.215Z,148.12
2023-05-09T04:34:57.265Z,149.11
2023-05-09T04:35:57.250Z,148.03
2023-05-09T04:36:57.279Z,147.95
2023-05-09T04:37:57.294Z,146.38
2023-05-09T04:38:57.340Z,147.34
2023-05-09T04:39:57.353Z,148.73
2023-05-09T04:40:57.378Z,147.17
2023-05-09T04:41:57.405Z,147.22
2023-05-09T04:42:57.448Z,146.93
2023-05-09T04:43:57.483Z,148.73
2023-05-09T04:44:57.506Z,148.00
2023-05-09T04:45:57.540Z,148.35
2023-05-09T04:46:57.629Z,146.96
2023-05-09T04:47:57.640Z,147.19
2023-05-09T04:48:57.618Z,148.61
2023-05-09T04:49:57.691Z,149.89
2023-05-09T04:50:57.667Z,148.39
2023-05-09T04:51:57.717Z,146.85
2023-05-09T04:52:57.746Z,146.72
2023-05-09T04:53:57.766Z,147.61
2023-05-09T04:54:57.786Z,148.31
2023-05-09T04:55:57.835Z,146.54
2023-05-09T04:57:09.786Z,148.53
2023-05-09T04:57:58.819Z,148.64
2023-05-09T04:58:57.814Z,149.02
2023-05-09T04:59:57.799Z,148.32
2023-05-09T05:00:57.796Z,146.09
2023-05-09T05:01:57.846Z,146.13
2023-05-09T05:02:57.876Z,147.40
2023-05-09T05:03:57.784Z,146.71
2023-05-09T05:05:10.055Z,144.19
2023-05-09T05:05:58.768Z,144.51
2023-05-09T05:06:57.744Z,145.18
2023-05-09T05:07:58.085Z,145.98
2023-05-09T05:08:57.738Z,146.69
2023-05-09T05:09:57.709Z,148.83
2023-05-09T05:10:57.724Z,145.73
2023-05-09T05:12:01.608Z,143.77
2023-05-09T05:12:58.794Z,144.04
2023-05-09T05:13:57.693Z,144.41
2023-05-09T05:14:57.687Z,145.08
2023-05-09T05:15:57.711Z,146.10
2023-05-09T05:16:57.696Z,145.06
2023-05-09T05:17:57.687Z,145.32
2023-05-09T05:18:57.775Z,147.31
2023-05-09T05:19:57.643Z,145.27
2023-05-09T05:20:57.660Z,143.55
2023-05-09T05:21:57.654Z,145.06
2023-05-09T05:22:57.642Z,144.81
2023-05-09T05:23:57.660Z,146.11
2023-05-09T05:24:57.642Z,144.20
2023-05-09T05:25:57.603Z,144.63
2023-05-09T05:26:57.604Z,143.35
2023-05-09T05:27:57.630Z,145.26
2023-05-09T05:28:57.681Z,145.26
2023-05-09T05:29:57.686Z,146.54
2023-05-09T05:30:57.700Z,144.38
2023-05-09T05:31:57.972Z,144.27
2023-05-09T05:32:57.772Z,144.05
2023-05-09T05:33:57.797Z,144.41
2023-05-09T05:34:57.957Z,144.99
2023-05-09T05:35:57.805Z,147.39
2023-05-09T05:36:57.798Z,147.93
2023-05-09T05:37:57.876Z,150.10
2023-05-09T05:38:57.884Z,150.85
2023-05-09T05:39:57.888Z,154.30
2023-05-09T05:40:57.933Z,158.14
2023-05-09T05:41:57.935Z,159.02
2023-05-09T05:42:57.964Z,163.03
2023-05-09T05:43:57.989Z,169.01
2023-05-09T05:44:57.993Z,177.29
2023-05-09T05:45:58.053Z,177.91
2023-05-09T05:46:58.032Z,182.10
2023-05-09T05:47:58.079Z,192.91
2023-05-09T05:48:58.073Z,193.22
2023-05-09T05:49:58.090Z,204.16
2023-05-09T05:50:58.183Z,206.87
2023-05-09T05:51:58.110Z,213.16
2023-05-09T05:52:58.602Z,221.84
2023-05-09T05:53:58.126Z,218.87
2023-05-09T05:54:58.137Z,220.26
2023-05-09T05:55:58.148Z,229.22
2023-05-09T05:56:58.165Z,236.76
2023-05-09T05:57:58.135Z,243.60
2023-05-09T05:58:58.121Z,242.65
2023-05-09T05:59:58.109Z,244.90
2023-05-09T06:00:58.169Z,250.00
2023-05-09T06:01:58.198Z,248.62
2023-05-09T06:02:58.629Z,249.43
2023-05-09T06:03:58.233Z,248.88
2023-05-09T06:04:58.208Z,246.69
2023-05-09T06:05:58.285Z,250.34
2023-05-09T06:06:58.405Z,250.00
2023-05-09T06:07:58.368Z,248.52
2023-05-09T06:08:58.446Z,249.67
2023-05-09T06:09:58.471Z,246.97
2023-05-09T06:10:58.537Z,250.00
2023-05-09T06:11:58.602Z,248.30
2023-05-09T06:12:58.695Z,248.38
2023-05-09T06:13:58.737Z,249.60
2023-05-09T06:14:58.779Z,250.00
2023-05-09T06:16:07.824Z,249.40
2023-05-09T06:16:59.861Z,249.54
2023-05-09T06:17:58.920Z,249.70
2023-05-09T06:18:58.816Z,251.70
2023-05-09T06:19:58.835Z,256.59
2023-05-09T06:20:58.824Z,259.15
2023-05-09T06:21:58.844Z,249.03
2023-05-09T06:22:58.899Z,248.49
2023-05-09T06:24:09.905Z,249.18
2023-05-09T06:24:59.807Z,249.40
2023-05-09T06:25:58.779Z,249.83
2023-05-09T06:26:58.780Z,252.43
2023-05-09T06:27:58.804Z,254.35
2023-05-09T06:28:58.759Z,261.96
2023-05-09T06:29:58.752Z,249.78
2023-05-09T06:30:58.777Z,248.98
2023-05-09T06:31:58.788Z,246.96
2023-05-09T06:32:58.769Z,246.79
2023-05-09T06:33:58.720Z,248.53
2023-05-09T06:34:58.728Z,248.82
2023-05-09T06:35:58.780Z,249.12
2023-05-09T06:36:58.912Z,245.23
2023-05-09T06:37:59.092Z,239.98
2023-05-09T06:38:59.191Z,239.66
2023-05-09T06:39:58.998Z,240.16
2023-05-09T06:40:59.024Z,242.33
2023-05-09T06:41:59.156Z,241.50
2023-05-09T06:42:59.171Z,234.72
2023-05-09T06:44:00.132Z,228.84
2023-05-09T06:44:59.301Z,221.28
2023-05-09T06:45:59.367Z,219.92
2023-05-09T06:46:59.406Z,214.92
2023-05-09T06:47:59.470Z,210.15
2023-05-09T06:48:59.488Z,204.26
2023-05-09T06:49:59.517Z,207.47
2023-05-09T06:50:59.567Z,202.79
2023-05-09T06:51:59.681Z,194.92
2023-05-09T06:52:59.634Z,192.45
2023-05-09T06:53:59.639Z,189.96
2023-05-09T06:54:59.729Z,187.18
2023-05-09T06:55:59.707Z,187.86
2023-05-09T06:56:59.693Z,183.40
2023-05-09T06:57:59.735Z,186.24
2023-05-09T06:58:59.730Z,183.53
2023-05-09T06:59:59.774Z,177.96
2023-05-09T07:00:59.736Z,179.78
2023-05-09T07:01:59.816Z,177.17
2023-05-09T07:02:59.733Z,174.92
2023-05-09T07:03:59.673Z,171.88
2023-05-09T07:04:59.789Z,169.21
2023-05-09T07:05:59.659Z,169.47
2023-05-09T07:06:59.708Z,169.79
2023-05-09T07:07:59.769Z,166.92
2023-05-09T07:08:59.663Z,166.71
2023-05-09T07:10:10.488Z,167.12
2023-05-09T07:11:00.736Z,167.22
2023-05-09T07:11:59.649Z,167.29
2023-05-09T07:12:59.658Z,163.86
2023-05-09T07:13:59.667Z,162.80
2023-05-09T07:14:59.676Z,162.50
2023-05-09T07:15:59.661Z,162.96
2023-05-09T07:17:13.596Z,162.94
2023-05-09T07:18:00.739Z,162.50
2023-05-09T07:18:59.590Z,159.66
2023-05-09T07:19:59.576Z,158.94
2023-05-09T07:20:59.573Z,156.05
2023-05-09T07:21:59.772Z,153.07
2023-05-09T07:22:59.641Z,154.47
2023-05-09T07:23:59.578Z,157.69
2023-05-09T07:24:59.559Z,157.07
2023-05-09T07:25:59.538Z,155.05
2023-05-09T07:26:59.652Z,152.07
2023-05-09T07:27:59.511Z,159.93
2023-05-09T07:28:59.569Z,167.35
2023-05-09T07:29:59.578Z,169.84
2023-05-09T07:30:59.828Z,172.34
2023-05-09T07:31:59.723Z,181.90
2023-05-09T07:32:59.853Z,189.05
2023-05-09T07:34:00.152Z,189.71
2023-05-09T07:34:59.859Z,189.71
2023-05-09T07:35:59.923Z,184.82
2023-05-09T07:37:00.647Z,180.29
2023-05-09T07:38:00.088Z,178.34
2023-05-09T07:39:00.176Z,175.46
2023-05-09T07:40:00.169Z,169.29
2023-05-09T07:41:00.166Z,163.28
2023-05-09T07:42:00.238Z,156.38
2023-05-09T07:43:00.341Z,153.47
2023-05-09T07:44:00.685Z,150.14
2023-05-09T07:45:00.385Z,144.81
2023-05-09T07:46:00.440Z,137.63
2023-05-09T07:47:00.472Z,122.91
2023-05-09T07:48:00.573Z,128.75
2023-05-09T07:49:00.625Z,126.50
2023-05-09T07:50:00.637Z,119.65
2023-05-09T07:51:00.711Z,111.92
2023-05-09T07:52:00.764Z,117.73
2023-05-09T07:53:00.899Z,114.81
2023-05-09T07:54:00.950Z,113.88
2023-05-09T07:55:00.911Z,113.30
2023-05-09T07:56:00.973Z,109.01
2023-05-09T07:57:01.077Z,110.04
2023-05-09T07:58:01.200Z,106.34
2023-05-09T07:59:01.217Z,106.51
2023-05-09T08:00:01.119Z,107.41
2023-05-09T08:01:01.316Z,110.36
2023-05-09T08:02:01.141Z,115.80
2023-05-09T08:03:01.371Z,98.19
2023-05-09T08:04:01.204Z,113.13
2023-05-09T08:05:01.084Z,120.45
2023-05-09T08:06:01.042Z,122.72
2023-05-09T08:07:01.096Z,116.73
2023-05-09T08:08:01.167Z,114.42
2023-05-09T08:09:01.270Z,112.34
2023-05-09T08:10:01.319Z,110.33
2023-05-09T08:11:01.374Z,110.14
2023-05-09T08:12:01.427Z,110.91
2023-05-09T08:13:01.506Z,106.85
2023-05-09T08:14:01.558Z,97.32
2023-05-09T08:15:01.715Z,83.93
2023-05-09T08:16:01.778Z,92.44
2023-05-09T08:17:01.741Z,96.24
2023-05-09T08:18:01.795Z,90.86
2023-05-09T08:19:01.915Z,89.10
2023-05-09T08:20:01.932Z,72.10
2023-05-09T08:21:01.963Z,85.50
2023-05-09T08:22:02.030Z,81.34
2023-05-09T08:23:02.158Z,58.36
2023-05-09T08:24:02.682Z,71.46
2023-05-09T08:25:02.218Z,84.99
2023-05-09T08:26:02.269Z,71.92
2023-05-09T08:27:02.401Z,78.80
2023-05-09T08:28:02.438Z,68.62
2023-05-09T08:29:02.639Z,63.84
2023-05-09T08:30:02.508Z,55.21
2023-05-09T08:31:02.664Z,71.09
2023-05-09T08:32:02.600Z,77.32
2023-05-09T08:33:02.699Z,67.26
2023-05-09T08:34:02.762Z,70.16
2023-05-09T08:35:03.168Z,72.01
2023-05-09T08:36:02.846Z,35.13
2023-05-09T08:37:02.933Z,39.79
2023-05-09T08:38:02.960Z,37.92
2023-05-09T08:39:03.141Z,51.82
2023-05-09T08:40:03.156Z,47.83
2023-05-09T08:41:03.083Z,36.10
2023-05-09T08:42:03.132Z,61.95
2023-05-09T08:43:03.134Z,80.31
2023-05-09T08:44:03.186Z,94.92
2023-05-09T08:45:03.235Z,102.12
2023-05-09T08:46:03.333Z,107.21
2023-05-09T08:47:03.587Z,117.10
2023-05-09T08:48:03.453Z,138.64
2023-05-09T08:49:03.490Z,132.66
2023-05-09T08:50:03.639Z,128.96
2023-05-09T08:51:03.563Z,127.50
2023-05-09T08:52:03.621Z,127.88
2023-05-09T08:53:03.725Z,127.66
2023-05-09T08:54:04.169Z,112.34
2023-05-09T08:55:03.741Z,118.26
2023-05-09T08:56:03.784Z,135.26
2023-05-09T08:57:03.792Z,131.73
2023-05-09T08:58:03.832Z,127.31
2023-05-09T08:59:03.886Z,127.84
2023-05-09T09:00:03.924Z,125.68
2023-05-09T09:01:03.954Z,121.12
2023-05-09T09:02:04.025Z,118.90
2023-05-09T09:03:04.208Z,118.29
2023-05-09T09:04:04.060Z,124.17
2023-05-09T09:05:04.134Z,155.06
2023-05-09T09:06:04.127Z,133.22
2023-05-09T09:07:04.160Z,124.73
2023-05-09T09:08:04.184Z,122.94
2023-05-09T09:09:04.276Z,122.59
2023-05-09T09:10:04.261Z,121.82
2023-05-09T09:11:04.334Z,122.89
2023-05-09T09:12:04.333Z,120.14
2023-05-09T09:13:04.404Z,84.18
2023-05-09T09:14:04.393Z,101.28
2023-05-09T09:15:04.462Z,111.43
2023-05-09T09:16:04.510Z,112.93
2023-05-09T09:17:04.563Z,113.67
2023-05-09T09:18:07.270Z,117.69
2023-05-09T09:19:04.581Z,121.33
2023-05-09T09:20:04.655Z,116.50
2023-05-09T09:21:04.569Z,110.82
2023-05-09T09:22:04.548Z,69.40
2023-05-09T09:23:04.557Z,99.33
2023-05-09T09:24:04.522Z,112.61
2023-05-09T09:25:04.586Z,114.35
2023-05-09T09:26:04.522Z,114.75
2023-05-09T09:27:04.498Z,75.14
2023-05-09T09:28:04.494Z,78.27
2023-05-09T09:29:04.506Z,76.27
2023-05-09T09:30:04.533Z,37.98
2023-05-09T09:31:04.475Z,52.04
2023-05-09T09:32:04.498Z,80.51
2023-05-09T09:33:04.602Z,74.80
2023-05-09T09:34:04.741Z,91.63
2023-05-09T09:35:04.441Z,90.46
2023-05-09T09:36:04.444Z,80.08
2023-05-09T09:37:04.493Z,66.82
2023-05-09T09:38:04.459Z,74.79
2023-05-09T09:39:04.445Z,64.98
2023-05-09T09:40:04.429Z,65.53
2023-05-09T09:41:04.424Z,43.77
2023-05-09T09:42:04.404Z,48.26
2023-05-09T09:43:04.380Z,46.84
2023-05-09T09:44:04.447Z,20.74
2023-05-09T09:45:04.384Z,36.68
2023-05-09T09:46:04.410Z,48.95
2023-05-09T09:47:04.361Z,33.63
2023-05-09T09:48:04.381Z,41.68
2023-05-09T09:49:04.333Z,17.65
2023-05-09T09:50:04.421Z,12.49
2023-05-09T09:51:04.338Z,17.29
2023-05-09T09:52:04.334Z,30.52
2023-05-09T09:53:04.339Z,21.11
2023-05-09T09:54:04.335Z,27.49
2023-05-09T09:55:04.296Z,17.10
2023-05-09T09:56:04.311Z,29.10
2023-05-09T09:57:04.312Z,37.55
2023-05-09T09:58:04.288Z,51.91
2023-05-09T09:59:04.274Z,36.43
2023-05-09T10:00:04.289Z,48.04
2023-05-09T10:01:04.325Z,49.41
2023-05-09T10:02:07.556Z,39.79
2023-05-09T10:03:04.336Z,39.97
2023-05-09T10:04:04.356Z,38.36
2023-05-09T10:05:04.240Z,37.16
2023-05-09T10:06:04.316Z,40.84
2023-05-09T10:07:04.218Z,33.44
2023-05-09T10:08:04.204Z,38.23
2023-05-09T10:09:04.212Z,45.38
2023-05-09T10:10:04.220Z,44.89
2023-05-09T10:11:04.209Z,49.38
2023-05-09T10:12:04.241Z,51.39
2023-05-09T10:13:04.209Z,42.62
2023-05-09T10:14:04.210Z,30.89
2023-05-09T10:15:04.172Z,37.35
2023-05-09T10:16:04.281Z,29.79
2023-05-09T10:17:04.263Z,46.13
2023-05-09T10:18:04.304Z,28.97
2023-05-09T10:19:04.179Z,43.23
2023-05-09T10:20:04.145Z,37.15
2023-05-09T10:21:04.184Z,29.29
2023-05-09T10:22:04.287Z,27.09
2023-05-09T10:23:04.103Z,48.03
2023-05-09T10:24:04.127Z,46.33
2023-05-09T10:25:04.079Z,34.49
2023-05-09T10:26:04.105Z,59.80
2023-05-09T10:27:04.128Z,74.39
2023-05-09T10:28:04.065Z,90.22
2023-05-09T10:29:04.058Z,109.59
2023-05-09T10:30:04.067Z,116.83
2023-05-09T10:31:04.959Z,125.62
2023-05-09T10:32:04.035Z,135.36
2023-05-09T10:33:04.134Z,140.38
2023-05-09T10:34:04.036Z,142.63
2023-05-09T10:35:04.044Z,142.96
2023-05-09T10:36:04.013Z,136.96
2023-05-09T10:37:04.011Z,135.44
2023-05-09T10:38:04.133Z,133.87
2023-05-09T10:39:04.043Z,133.97
2023-05-09T10:40:04.005Z,139.73
2023-05-09T10:41:04.026Z,131.87
2023-05-09T10:42:04.044Z,135.65
2023-05-09T10:43:04.031Z,134.57
2023-05-09T10:44:04.076Z,136.07
2023-05-09T10:45:04.063Z,133.01
2023-05-09T10:46:04.146Z,132.20
2023-05-09T10:47:04.217Z,132.32
2023-05-09T10:48:04.184Z,137.15
2023-05-09T10:49:04.130Z,138.79
2023-05-09T10:50:04.167Z,139.16
2023-05-09T10:51:04.177Z,128.20
2023-05-09T10:52:04.207Z,124.02
2023-05-09T10:53:04.232Z,119.73
2023-05-09T10:54:04.307Z,118.12
2023-05-09T10:55:04.239Z,115.91
2023-05-09T10:56:04.236Z,101.71
2023-05-09T10:57:04.257Z,116.12
2023-05-09T10:58:04.309Z,123.71
2023-05-09T10:59:04.315Z,123.90
2023-05-09T11:00:04.406Z,122.63
2023-05-09T11:01:04.351Z,119.56
2023-05-09T11:02:04.586Z,108.92
2023-05-09T11:03:04.435Z,112.74
2023-05-09T11:04:04.472Z,115.28
2023-05-09T11:05:04.459Z,114.79
2023-05-09T11:06:04.484Z,117.80
2023-05-09T11:07:04.502Z,120.31
2023-05-09T11:08:04.537Z,122.30
2023-05-09T11:09:04.542Z,117.01
2023-05-09T11:10:04.658Z,110.68
2023-05-09T11:11:04.657Z,108.56
2023-05-09T11:12:04.630Z,108.18
2023-05-09T11:13:04.739Z,111.28
2023-05-09T11:14:04.726Z,105.00
2023-05-09T11:15:04.852Z,90.60
2023-05-09T11:16:04.771Z,87.67
2023-05-09T11:17:04.789Z,77.71
2023-05-09T11:18:04.898Z,77.27
2023-05-09T11:19:04.845Z,82.03
2023-05-09T11:20:05.216Z,68.05
2023-05-09T11:21:04.931Z,62.93
2023-05-09T11:22:04.964Z,59.60
2023-05-09T11:23:05.027Z,59.48
2023-05-09T11:24:05.004Z,54.32
2023-05-09T11:25:05.004Z,46.38
2023-05-09T11:26:05.144Z,49.66
2023-05-09T11:27:05.098Z,51.06
2023-05-09T11:28:05.129Z,53.46
2023-05-09T11:29:05.162Z,53.51
2023-05-09T11:30:05.188Z,52.75
2023-05-09T11:31:05.203Z,55.40
2023-05-09T11:32:05.264Z,56.16
2023-05-09T11:33:05.271Z,60.83
2023-05-09T11:34:05.291Z,51.53
2023-05-09T11:35:05.330Z,49.58
2023-05-09T11:36:05.358Z,44.10
2023-05-09T11:37:05.374Z,49.28
2023-05-09T11:38:05.413Z,56.45
2023-05-09T11:39:05.499Z,52.01
2023-05-09T11:40:05.459Z,49.72
2023-05-09T11:41:05.508Z,41.70
2023-05-09T11:42:05.680Z,37.53
2023-05-09T11:43:05.539Z,46.92
2023-05-09T11:44:05.566Z,44.36
2023-05-09T11:45:05.590Z,45.36
2023-05-09T11:46:05.608Z,44.35
2023-05-09T11:47:05.619Z,43.50
2023-05-09T11:48:05.682Z,41.68
2023-05-09T11:49:05.652Z,35.84
2023-05-09T11:50:05.671Z,30.18
2023-05-09T11:51:05.716Z,25.00
2023-05-09T11:52:05.717Z,25.63
2023-05-09T11:53:05.734Z,24.66
2023-05-09T11:54:05.755Z,29.77
2023-05-09T11:55:05.763Z,32.54
2023-05-09T11:56:05.752Z,25.00
2023-05-09T11:57:05.784Z,25.00
2023-05-09T11:58:05.862Z,25.15
2023-05-09T11:59:05.785Z,32.12
2023-05-09T12:00:05.802Z,30.28
2023-05-09T12:01:05.823Z,28.78
2023-05-09T12:02:05.899Z,27.41
2023-05-09T12:03:05.944Z,31.48
2023-05-09T12:04:05.979Z,29.55
2023-05-09T12:05:05.899Z,22.80
2023-05-09T12:06:05.926Z,30.89
2023-05-09T12:07:05.898Z,37.76
2023-05-09T12:08:05.923Z,42.24
2023-05-09T12:09:05.963Z,43.50
2023-05-09T12:10:05.982Z,42.57
2023-05-09T12:11:05.951Z,40.12
2023-05-09T12:12:06.000Z,40.44
2023-05-09T12:13:06.016Z,31.81
2023-05-09T12:14:06.150Z,33.49
2023-05-09T12:15:06.257Z,42.11
2023-05-09T12:16:06.066Z,46.03
2023-05-09T12:17:06.035Z,51.38
2023-05-09T12:18:06.061Z,35.09
2023-05-09T12:19:06.059Z,27.28
2023-05-09T12:20:06.080Z,3.18
2023-05-09T12:21:06.114Z,2.35
2023-05-09T12:22:06.162Z,20.14
2023-05-09T12:23:06.156Z,36.54
2023-05-09T12:24:06.195Z,42.97
2023-05-09T12:25:06.238Z,27.00
2023-05-09T12:26:06.260Z,18.00
2023-05-09T12:27:06.236Z,24.01
2023-05-09T12:28:06.280Z,26.83
2023-05-09T12:29:06.288Z,25.00
2023-05-09T12:30:06.404Z,23.91
2023-05-09T12:31:06.418Z,28.18
2023-05-09T12:32:06.403Z,28.90
2023-05-09T12:33:06.478Z,23.41
2023-05-09T12:34:06.429Z,26.56
2023-05-09T12:35:06.456Z,25.46